Time;durP1;ratioP1;P1;durP2;ratioP2;P2;SDS_P1;SDS_P2;PMS_P1;PMS_P2;Temp;Humidity;BMP_temperature;BMP_pressure;BME280_temperature;BME280_humidity;BME280_pressure;Samples;Min_cycle;Max_cycle;Signal;HPM_P1;HPM_P2
2022/11/11 09:17:06;;;;;;;15.40;10.00;;;19.20;99.90;;;;;;6036664;23;20054;31
2022/11/11 09:19:51;;;;;;;11.88;10.18;;;19.40;99.90;;;;;;4898490;29;20552;-92
2022/11/11 09:22:42;;;;;;;16.52;10.80;;;19.70;99.90;;;;;;4886185;29;20043;-92
2022/11/11 09:25:27;;;;;;;13.93;11.00;;;19.70;99.90;;;;;;4885967;29;20087;-92
2022/11/11 09:28:12;;;;;;;12.35;10.73;;;19.60;99.90;;;;;;4885457;29;20092;-91
2022/11/11 09:31:00;;;;;;;16.63;10.70;;;19.40;99.90;;;;;;4886168;29;20058;-92
2022/11/11 09:33:45;;;;;;;11.85;10.48;;;19.50;99.90;;;;;;4885995;29;20096;-94
2022/11/11 09:36:30;;;;;;;12.75;11.45;;;19.60;99.90;;;;;;4885874;29;20051;-92
2022/11/11 09:39:16;;;;;;;13.13;11.80;;;19.50;99.90;;;;;;4885960;29;20084;-93
2022/11/11 09:42:32;;;;;;;17.15;11.05;;;19.50;99.90;;;;;;4885651;29;20052;-93
2022/11/11 09:45:29;;;;;;;19.95;11.35;;;19.50;99.90;;;;;;4885759;29;20092;-92
2022/11/11 09:48:52;;;;;;;14.50;11.27;;;19.60;99.90;;;;;;4886220;29;20052;-92
2022/11/11 09:52:02;;;;;;;15.13;11.20;;;19.30;99.90;;;;;;4884824;29;20043;-91
2022/11/11 09:55:02;;;;;;;14.00;12.68;;;19.20;99.90;;;;;;4885662;29;20525;-91
2022/11/11 09:57:58;;;;;;;14.80;13.35;;;19.10;99.90;;;;;;4886493;29;20056;-93
2022/11/11 10:00:48;;;;;;;14.05;12.60;;;19.20;99.90;;;;;;4885787;29;20096;-92
2022/11/11 10:03:39;;;;;;;21.58;12.98;;;19.70;99.90;;;;;;4885073;29;20071;-93
2022/11/11 10:06:32;;;;;;;14.80;13.50;;;19.70;99.90;;;;;;4885584;29;20096;-92
2022/11/11 10:09:34;;;;;;;15.45;13.93;;;19.30;99.90;;;;;;4885517;29;20092;-93
2022/11/11 10:12:24;;;;;;;15.75;14.05;;;19.10;99.90;;;;;;4885522;29;20055;-92
2022/11/11 10:15:15;;;;;;;15.00;13.60;;;19.10;99.90;;;;;;4885185;29;20101;-92
2022/11/11 10:18:31;;;;;;;14.57;13.43;;;19.20;99.90;;;;;;4879763;29;20521;-92
2022/11/11 10:21:23;;;;;;;16.00;14.68;;;19.60;99.90;;;;;;4879870;29;20072;-92
2022/11/11 10:24:14;;;;;;;16.98;15.20;;;19.60;99.90;;;;;;4879839;29;20395;-92
2022/11/11 10:27:19;;;;;;;18.52;16.70;;;19.30;99.90;;;;;;4880096;29;20064;-92
2022/11/11 10:30:19;;;;;;;17.20;15.40;;;19.30;99.90;;;;;;4880379;29;20104;-94
2022/11/11 10:33:21;;;;;;;18.75;16.90;;;19.50;99.90;;;;;;4879924;29;20048;-93
2022/11/11 10:36:16;;;;;;;20.80;16.30;;;19.70;99.90;;;;;;4879713;29;20036;-94
2022/11/11 10:39:05;;;;;;;18.92;16.85;;;19.70;99.90;;;;;;4882862;29;20056;-91
2022/11/11 10:41:51;;;;;;;19.83;17.90;;;19.80;99.90;;;;;;4889178;29;20048;-92
2022/11/11 10:44:37;;;;;;;19.48;17.60;;;19.80;99.90;;;;;;4883650;29;20085;-93
2022/11/11 10:47:31;;;;;;;19.98;18.02;;;19.80;99.90;;;;;;4883052;29;20062;-93
2022/11/11 10:50:30;;;;;;;20.17;18.38;;;19.70;99.90;;;;;;4883016;29;20048;-92
2022/11/11 10:53:52;;;;;;;18.95;16.90;;;19.80;99.90;;;;;;4883254;29;20410;-93
2022/11/11 10:56:51;;;;;;;20.23;18.15;;;19.70;99.90;;;;;;4882805;29;20043;-93
2022/11/11 10:59:45;;;;;;;20.88;18.67;;;19.60;99.90;;;;;;4883285;29;20121;-92
2022/11/11 11:02:38;;;;;;;21.67;18.60;;;19.60;99.90;;;;;;4882785;29;20498;-92
2022/11/11 11:05:46;;;;;;;21.38;19.25;;;19.70;99.90;;;;;;4883272;29;20048;-92
2022/11/11 11:08:41;;;;;;;21.65;19.52;;;19.90;99.90;;;;;;4885310;29;20066;-94
2022/11/11 11:11:50;;;;;;;21.73;19.75;;;19.90;99.90;;;;;;4886292;29;20055;-95
2022/11/11 11:27:55;;;;;;;25.88;23.13;;;19.70;99.90;;;;;;1832713;23;20336;-92
2022/11/11 11:31:12;;;;;;;25.50;22.88;;;19.80;99.90;;;;;;4932085;29;20066;-95
2022/11/11 11:34:43;;;;;;;26.40;23.58;;;19.80;99.90;;;;;;5065492;23;20066;-94
2022/11/11 11:37:28;;;;;;;24.33;21.98;;;19.80;99.90;;;;;;4957132;29;20041;-94
2022/11/11 11:40:29;;;;;;;25.27;22.67;;;19.70;99.90;;;;;;4961538;29;20046;-94
2022/11/11 11:43:54;;;;;;;27.33;23.92;;;19.80;99.90;;;;;;4961485;29;20050;-95
2022/11/11 11:46:46;;;;;;;24.48;21.73;;;19.90;99.90;;;;;;4899291;29;20095;-94
2022/11/11 11:50:07;;;;;;;24.13;21.67;;;19.90;99.90;;;;;;4902260;29;20055;-92
2022/11/11 11:53:17;;;;;;;26.15;23.45;;;19.90;99.90;;;;;;4904749;29;20040;-94
2022/11/11 11:56:28;;;;;;;26.73;23.83;;;19.70;99.90;;;;;;4904729;29;20050;-94
2022/11/11 11:59:34;;;;;;;26.15;23.75;;;19.70;99.90;;;;;;4834691;29;20168;-93
2022/11/11 12:02:38;;;;;;;25.17;22.65;;;19.70;99.90;;;;;;4831130;29;20088;-92
2022/11/11 12:05:34;;;;;;;26.40;23.67;;;19.70;99.90;;;;;;4831800;29;20045;-93
2022/11/11 12:08:41;;;;;;;27.08;24.30;;;19.80;99.90;;;;;;4844583;29;20058;-93
2022/11/11 12:11:56;;;;;;;27.10;24.35;;;19.80;99.90;;;;;;4831807;29;20079;-94
2022/11/11 12:14:59;;;;;;;26.83;24.35;;;19.80;99.90;;;;;;4830881;29;20427;-93
2022/11/11 12:18:08;;;;;;;25.10;22.63;;;19.70;99.90;;;;;;4830931;29;20107;-93
2022/11/11 12:21:11;;;;;;;26.80;23.95;;;19.70;99.90;;;;;;4831085;29;20498;-93
2022/11/11 12:27:23;;;;;;;25.40;23.00;;;19.70;99.90;;;;;;4992902;23;20054;-94
2022/11/11 12:30:14;;;;;;;24.95;21.92;;;19.70;99.90;;;;;;5082073;23;20066;-91
2022/11/11 12:33:41;;;;;;;26.08;23.50;;;19.70;99.90;;;;;;4958481;28;20049;-93
2022/11/11 12:36:44;;;;;;;26.60;24.17;;;19.70;99.90;;;;;;4960173;28;20058;-93
2022/11/11 12:39:38;;;;;;;25.52;23.02;;;19.50;99.90;;;;;;4963744;28;20045;-93
2022/11/11 12:42:58;;;;;;;25.00;22.58;;;19.50;99.90;;;;;;4962434;28;20050;-92
2022/11/11 12:46:14;;;;;;;26.42;23.35;;;19.60;99.90;;;;;;4962230;28;20045;-92
2022/11/11 12:49:32;;;;;;;27.13;24.33;;;19.60;99.90;;;;;;4962874;28;20045;-94
2022/11/11 12:52:23;;;;;;;29.08;24.52;;;19.70;99.90;;;;;;4963095;28;20090;-94
2022/11/11 12:55:26;;;;;;;24.50;22.05;;;19.70;99.90;;;;;;4962409;28;20565;-92
2022/11/11 12:58:52;;;;;;;26.67;23.85;;;19.70;99.90;;;;;;4962421;28;20065;-93
2022/11/11 13:02:24;;;;;;;29.00;23.42;;;19.60;99.90;;;;;;4962961;28;20499;-94
2022/11/11 13:05:20;;;;;;;25.10;22.65;;;19.50;99.90;;;;;;4870223;29;20056;-92
2022/11/11 13:08:31;;;;;;;24.90;22.20;;;19.60;99.90;;;;;;4870546;29;20052;-92
2022/11/11 13:11:37;;;;;;;25.30;22.23;;;19.60;99.90;;;;;;4867310;29;20086;-92
2022/11/11 13:14:49;;;;;;;23.80;21.30;;;19.60;99.90;;;;;;4879969;29;20048;-92
2022/11/11 13:17:35;;;;;;;24.13;22.08;;;19.50;99.90;;;;;;4866858;29;20463;-92
2022/11/11 13:20:47;;;;;;;23.48;21.00;;;19.50;99.90;;;;;;4880967;29;20059;-92
2022/11/11 13:23:32;;;;;;;22.38;20.33;;;19.50;99.90;;;;;;4866006;29;20442;-94
2022/11/11 13:26:38;;;;;;;22.80;20.70;;;19.50;99.90;;;;;;4866514;29;20056;-93
2022/11/11 13:29:58;;;;;;;22.20;19.88;;;19.50;99.90;;;;;;4878991;29;20059;-92
2022/11/11 13:32:48;;;;;;;21.65;19.75;;;19.50;99.90;;;;;;4848151;29;20098;-92
2022/11/11 13:35:44;;;;;;;22.25;20.08;;;19.50;99.90;;;;;;4847934;29;20040;-92
2022/11/11 13:38:36;;;;;;;22.55;20.35;;;19.50;99.90;;;;;;4848093;29;20102;-91
2022/11/11 13:41:43;;;;;;;21.45;19.65;;;19.50;99.90;;;;;;4919211;29;20111;-92
2022/11/11 13:44:46;;;;;;;21.30;19.48;;;19.40;99.90;;;;;;4943077;29;20058;-91
2022/11/11 13:50:13;;;;;;;21.15;19.42;;;19.40;99.90;;;;;;6002170;23;20032;-93
2022/11/11 13:53:04;;;;;;;20.90;18.92;;;19.40;99.90;;;;;;4922464;29;20050;-93
2022/11/11 13:55:52;;;;;;;23.60;20.13;;;19.40;99.90;;;;;;4924939;29;20171;-92
2022/11/11 13:58:39;;;;;;;20.73;18.95;;;19.40;99.90;;;;;;4925141;29;20166;-92
2022/11/11 14:01:32;;;;;;;21.58;19.42;;;19.30;99.90;;;;;;4934364;29;20046;-92
2022/11/11 14:04:18;;;;;;;20.15;18.58;;;19.30;99.90;;;;;;4945756;29;20066;-94
2022/11/11 14:07:03;;;;;;;20.17;18.60;;;19.30;99.90;;;;;;4942207;29;20452;-92
2022/11/11 14:09:57;;;;;;;21.40;19.60;;;19.20;99.90;;;;;;4942383;29;20043;-92
2022/11/11 14:12:56;;;;;;;22.30;20.13;;;19.20;99.90;;;;;;4942169;29;20499;-93
2022/11/11 14:15:51;;;;;;;21.63;19.63;;;19.20;99.90;;;;;;4942232;29;20486;-92
2022/11/11 14:18:38;;;;;;;20.88;19.08;;;19.10;99.90;;;;;;4942339;29;20069;-93
2022/11/11 14:21:54;;;;;;;19.77;18.13;;;19.10;99.90;;;;;;4941832;29;20066;-93
2022/11/11 14:24:46;;;;;;;21.42;19.45;;;19.00;99.90;;;;;;4942235;29;20575;-94
2022/11/11 14:27:33;;;;;;;21.35;18.88;;;19.00;99.90;;;;;;4942587;29;20189;-94
2022/11/11 14:30:38;;;;;;;20.65;18.90;;;19.00;99.90;;;;;;4941999;29;20041;-93
2022/11/11 14:33:26;;;;;;;;;;;18.90;99.90;;;;;;4942399;29;20486;-93
2022/11/11 14:36:17;;;;;;;20.15;18.20;;;18.90;99.90;;;;;;4941644;29;19917;-92
2022/11/11 14:39:31;;;;;;;19.95;18.10;;;18.90;99.90;;;;;;4941719;29;20058;-92
2022/11/11 14:42:37;;;;;;;20.45;18.67;;;18.80;99.90;;;;;;4941810;29;20077;-93
2022/11/11 14:45:31;;;;;;;19.92;18.17;;;18.80;99.90;;;;;;4939368;29;20127;-93
2022/11/11 14:49:03;;;;;;;20.65;18.98;;;18.70;99.90;;;;;;4942282;29;20093;-93
2022/11/11 14:51:58;;;;;;;19.38;17.77;;;18.60;99.90;;;;;;4936012;29;20420;-92
2022/11/11 14:54:49;;;;;;;19.65;17.95;;;18.60;99.90;;;;;;4941607;29;20053;-92
2022/11/11 14:58:01;;;;;;;21.52;19.25;;;18.60;99.90;;;;;;4942002;29;20098;-93
2022/11/11 15:00:52;;;;;;;20.35;18.73;;;18.50;99.90;;;;;;4939836;29;20400;-92
2022/11/11 15:04:00;;;;;;;21.65;19.42;;;18.50;99.90;;;;;;4941235;29;20101;-91
2022/11/11 15:07:14;;;;;;;20.98;19.02;;;18.50;99.90;;;;;;4941549;29;20469;-93
2022/11/11 15:10:12;;;;;;;20.90;19.00;;;18.40;99.90;;;;;;4955357;29;20079;-92
2022/11/11 15:13:35;;;;;;;20.80;18.98;;;18.30;99.90;;;;;;4941618;29;20601;-92
2022/11/11 15:16:44;;;;;;;22.05;20.02;;;18.30;99.90;;;;;;4941175;29;20042;-93
2022/11/11 15:19:47;;;;;;;20.42;18.42;;;18.20;99.90;;;;;;4941588;29;20090;-92
2022/11/11 15:22:38;;;;;;;20.27;18.48;;;18.10;99.90;;;;;;4941121;29;20063;-92
2022/11/11 15:25:23;;;;;;;22.52;20.23;;;18.10;99.90;;;;;;4941864;28;20616;-91
2022/11/11 15:28:10;;;;;;;;;;;18.00;99.90;;;;;;4944880;29;20044;-93
2022/11/11 15:31:22;;;;;;;19.58;17.55;;;17.90;99.90;;;;;;4944766;29;19917;-91
2022/11/11 15:34:22;;;;;;;22.08;17.83;;;17.90;99.90;;;;;;4958456;29;20041;-92
2022/11/11 15:37:20;;;;;;;19.90;17.80;;;17.80;99.90;;;;;;4944330;29;20046;-92
2022/11/11 15:40:07;;;;;;;19.55;17.45;;;17.80;99.90;;;;;;4957925;29;20047;-91
2022/11/11 15:42:53;;;;;;;19.75;16.52;;;17.70;99.90;;;;;;4957697;29;20067;-90
2022/11/11 15:45:38;;;;;;;17.60;15.68;;;17.60;99.90;;;;;;4958150;29;20432;-91
2022/11/11 15:48:28;;;;;;;21.15;15.57;;;17.60;99.90;;;;;;4957492;29;20106;-92
2022/11/11 15:51:17;;;;;;;19.92;15.98;;;17.50;99.90;;;;;;4965534;28;20081;-90
2022/11/11 15:54:21;;;;;;;20.60;15.77;;;17.50;99.90;;;;;;4963651;28;20065;-90
2022/11/11 15:57:28;;;;;;;23.45;17.25;;;17.40;99.90;;;;;;4963738;28;20045;-90
2022/11/11 16:00:31;;;;;;;28.08;18.65;;;17.40;99.90;;;;;;4963815;28;20121;-89
2022/11/11 16:03:20;;;;;;;25.88;18.42;;;17.30;99.90;;;;;;4963761;28;20046;-90
2022/11/11 16:06:12;;;;;;;27.13;17.35;;;17.20;99.90;;;;;;4964483;28;20090;-89
2022/11/11 16:08:57;;;;;;;25.33;16.98;;;17.20;99.90;;;;;;4963426;28;20089;-91
2022/11/11 16:11:43;;;;;;;26.25;17.67;;;17.10;99.90;;;;;;4963219;28;20101;-90
2022/11/11 16:14:40;;;;;;;23.80;17.85;;;17.10;99.90;;;;;;4963256;28;20090;-92
2022/11/11 16:17:32;;;;;;;22.85;17.58;;;17.10;99.90;;;;;;4963348;28;20050;-89
2022/11/11 16:20:24;;;;;;;22.38;17.83;;;17.00;99.90;;;;;;4963222;28;20121;-89
2022/11/11 16:23:15;;;;;;;22.23;18.25;;;17.00;99.90;;;;;;4963213;28;20125;-89
2022/11/11 16:26:03;;;;;;;28.02;20.15;;;17.00;99.90;;;;;;4963185;28;20400;-89
2022/11/11 16:28:56;;;;;;;29.02;19.23;;;16.90;99.90;;;;;;4963060;28;20096;-90
2022/11/11 16:31:43;;;;;;;25.60;19.40;;;16.90;99.90;;;;;;4962825;28;20467;-88
2022/11/11 16:34:31;;;;;;;26.85;19.20;;;16.90;99.90;;;;;;4962987;28;20078;-90
2022/11/11 16:37:17;;;;;;;30.00;21.20;;;16.80;99.90;;;;;;4962330;28;20082;-89
2022/11/11 16:40:47;;;;;;;25.50;19.60;;;16.80;99.90;;;;;;4963059;28;20042;-88
2022/11/11 16:43:41;;;;;;;27.60;20.15;;;16.70;99.90;;;;;;4962314;28;20049;-89
2022/11/11 16:46:35;;;;;;;28.67;19.17;;;16.70;99.90;;;;;;4962573;28;20045;-89
2022/11/11 16:49:31;;;;;;;29.88;19.90;;;16.60;99.90;;;;;;4962059;28;20081;-88
2022/11/11 16:52:21;;;;;;;24.05;18.80;;;16.60;99.90;;;;;;4961850;28;20526;-88
2022/11/11 16:55:10;;;;;;;23.58;18.98;;;16.50;99.90;;;;;;4962780;28;20392;-89
2022/11/11 16:57:56;;;;;;;26.42;19.00;;;16.50;99.90;;;;;;4962534;28;20542;-89
2022/11/11 17:00:44;;;;;;;26.17;19.67;;;16.50;99.90;;;;;;4962563;28;20117;-89
2022/11/11 17:03:29;;;;;;;29.33;21.02;;;16.40;99.90;;;;;;4962231;28;20049;-89
2022/11/11 17:06:14;;;;;;;30.35;19.60;;;16.40;99.90;;;;;;4961888;28;20085;-88
2022/11/11 17:08:59;;;;;;;30.92;21.02;;;16.30;99.90;;;;;;4961918;28;20041;-88
2022/11/11 17:11:45;;;;;;;30.27;21.35;;;16.30;99.90;;;;;;4964136;28;20030;-92
2022/11/11 17:14:36;;;;;;;29.60;20.67;;;16.20;99.90;;;;;;4961851;28;20162;-92
2022/11/11 17:17:21;;;;;;;29.35;19.42;;;16.20;99.90;;;;;;4962103;28;20053;-90
2022/11/11 17:20:11;;;;;;;29.98;20.08;;;16.10;99.90;;;;;;4961868;28;20085;-91
2022/11/11 17:22:57;;;;;;;28.23;19.42;;;16.10;99.90;;;;;;4961639;28;20097;-90
2022/11/11 17:25:42;;;;;;;27.45;19.35;;;16.00;99.90;;;;;;4961834;28;20552;-91
2022/11/11 17:28:34;;;;;;;35.63;20.35;;;16.00;99.90;;;;;;4961667;28;20089;-92
2022/11/11 17:31:18;;;;;;;30.10;19.17;;;16.00;99.90;;;;;;4961564;28;20166;-91
2022/11/11 17:34:10;;;;;;;29.88;18.60;;;16.00;99.90;;;;;;4961422;28;20115;-92
2022/11/11 17:36:55;;;;;;;27.77;18.23;;;16.00;99.90;;;;;;4962237;28;20388;-90
2022/11/11 17:39:43;;;;;;;30.23;19.75;;;16.00;99.90;;;;;;4961761;28;20438;-89
2022/11/11 17:42:29;;;;;;;27.30;17.50;;;16.00;99.90;;;;;;4961326;28;20041;-90
2022/11/11 17:45:14;;;;;;;32.05;18.98;;;15.90;99.90;;;;;;4961795;28;20081;-90
2022/11/11 17:48:00;;;;;;;37.00;19.50;;;15.90;99.90;;;;;;4961920;28;20077;-90
2022/11/11 17:50:44;;;;;;;27.08;17.25;;;15.90;99.90;;;;;;4960318;28;20050;-89
2022/11/11 17:53:33;;;;;;;27.52;18.85;;;15.90;99.90;;;;;;4961046;28;20503;-90
2022/11/11 17:56:18;;;;;;;27.85;18.35;;;15.80;99.90;;;;;;4961594;28;20081;-89
2022/11/11 17:59:04;;;;;;;35.80;17.10;;;15.80;99.90;;;;;;4961467;28;20396;-90
2022/11/11 18:01:49;;;;;;;29.90;18.42;;;15.80;99.90;;;;;;4962324;28;20106;-90
2022/11/11 18:04:35;;;;;;;30.30;19.58;;;15.80;99.90;;;;;;4967338;28;20126;-89
2022/11/11 18:07:19;;;;;;;32.50;20.00;;;15.80;99.90;;;;;;4961235;28;20067;-91
2022/11/11 18:10:05;;;;;;;28.85;18.70;;;15.80;99.90;;;;;;4960968;28;20094;-90
2022/11/11 18:12:50;;;;;;;34.95;20.73;;;15.80;99.90;;;;;;4960987;28;20082;-90
2022/11/11 18:15:34;;;;;;;31.58;20.92;;;15.80;99.90;;;;;;4960955;28;20045;-91
2022/11/11 18:18:19;;;;;;;44.70;26.30;;;15.70;99.90;;;;;;4960764;28;20050;-89
2022/11/11 18:21:05;;;;;;;37.40;21.88;;;15.70;99.90;;;;;;4960725;28;20046;-89
2022/11/11 18:23:49;;;;;;;35.22;18.90;;;15.70;99.90;;;;;;4960967;28;20566;-91
2022/11/11 18:26:34;;;;;;;;;;;15.70;99.90;;;;;;4961495;28;20077;-90
2022/11/11 18:29:19;;;;;;;36.42;21.42;;;15.70;99.90;;;;;;4961213;28;19965;-91
2022/11/11 18:32:03;;;;;;;;;;;15.60;99.90;;;;;;4961654;28;20041;-90
2022/11/11 18:34:48;;;;;;;70.15;39.25;;;15.60;99.90;;;;;;4961183;28;19937;-89
2022/11/11 18:37:36;;;;;;;77.45;42.20;;;15.60;99.90;;;;;;4960708;28;20037;-88
2022/11/11 18:40:20;;;;;;;56.97;33.90;;;15.60;99.90;;;;;;4960695;28;20550;-88
2022/11/11 18:43:05;;;;;;;64.50;37.40;;;15.60;99.90;;;;;;4960726;28;20069;-88
2022/11/11 18:45:49;;;;;;;;;;;15.60;99.90;;;;;;4961266;28;20105;-88
2022/11/11 18:48:35;;;;;;;84.53;46.53;;;15.50;99.90;;;;;;4960768;28;20005;-88
2022/11/11 18:51:20;;;;;;;94.15;55.60;;;15.50;99.90;;;;;;4960580;28;20469;-87
2022/11/11 18:54:05;;;;;;;232.48;117.30;;;15.50;99.90;;;;;;4960893;28;20101;-88
2022/11/11 18:56:50;;;;;;;59.13;33.33;;;15.50;99.90;;;;;;4960695;28;20030;-88
2022/11/11 18:59:35;;;;;;;131.68;73.20;;;15.50;99.90;;;;;;4960755;28;20128;-90
2022/11/11 19:02:23;;;;;;;83.68;49.17;;;15.50;99.90;;;;;;4963014;28;20058;-89
2022/11/11 19:05:09;;;;;;;47.72;30.45;;;15.50;99.90;;;;;;4964129;28;20397;-90
2022/11/11 19:07:53;;;;;;;57.42;31.50;;;15.40;99.90;;;;;;4964321;28;20078;-91
2022/11/11 19:10:37;;;;;;;;;;;15.40;99.90;;;;;;4964541;28;20094;-90
2022/11/11 19:13:22;;;;;;;67.30;40.63;;;15.40;99.90;;;;;;4964087;28;19960;-90
2022/11/11 19:16:20;;;;;;;77.68;53.33;;;15.30;99.90;;;;;;4964604;28;20102;-91
2022/11/11 19:19:05;;;;;;;31.50;20.27;;;15.30;99.90;;;;;;4964273;28;20093;-91
2022/11/11 19:21:50;;;;;;;50.55;26.02;;;15.30;99.90;;;;;;4963892;28;20499;-91
2022/11/11 19:24:35;;;;;;;35.80;22.77;;;15.20;99.90;;;;;;4963903;28;20050;-90
2022/11/11 19:27:20;;;;;;;;;;;15.30;99.90;;;;;;4964404;28;20069;-93
2022/11/11 19:30:05;;;;;;;42.50;27.67;;;15.30;99.90;;;;;;4963885;28;19964;-91
2022/11/11 19:32:50;;;;;;;37.38;21.65;;;15.20;99.90;;;;;;4964328;28;20066;-91
2022/11/11 19:35:34;;;;;;;49.53;29.77;;;15.20;99.90;;;;;;4963837;28;20132;-91
2022/11/11 19:38:19;;;;;;;;;;;15.20;99.90;;;;;;4964109;28;20038;-90
2022/11/11 19:41:10;;;;;;;67.57;39.97;;;15.20;99.90;;;;;;4963944;28;19917;-91
2022/11/11 19:43:55;;;;;;;41.08;24.30;;;15.20;99.90;;;;;;4963638;28;20416;-90
2022/11/11 19:46:40;;;;;;;48.20;25.70;;;15.20;99.90;;;;;;4963834;28;20119;-91
2022/11/11 19:49:25;;;;;;;43.53;25.10;;;15.10;99.90;;;;;;4963595;28;20050;-91
2022/11/11 19:52:09;;;;;;;;;;;15.20;99.90;;;;;;4963823;28;20053;-92
2022/11/11 19:54:55;;;;;;;54.10;32.72;;;15.20;99.90;;;;;;4963896;28;20014;-91
2022/11/11 19:57:40;;;;;;;78.75;44.08;;;15.10;99.90;;;;;;4964352;28;20546;-91
2022/11/11 20:00:25;;;;;;;216.68;120.07;;;15.20;99.90;;;;;;4968236;28;20045;-91
2022/11/11 20:03:09;;;;;;;;;;;15.10;99.90;;;;;;4964014;28;20097;-91
2022/11/11 20:05:54;;;;;;;45.88;23.00;;;15.10;99.90;;;;;;4963200;28;19916;-91
2022/11/11 20:08:38;;;;;;;;;;;15.10;99.90;;;;;;4963312;28;20081;-92
2022/11/11 20:11:27;;;;;;;47.80;26.45;;;15.10;99.90;;;;;;4963251;28;20068;-92
2022/11/11 20:14:11;;;;;;;70.07;42.15;;;15.00;99.90;;;;;;4963273;28;20046;-92
2022/11/11 20:16:56;;;;;;;55.08;33.70;;;15.10;99.90;;;;;;4963717;28;20122;-91
2022/11/11 20:19:43;;;;;;;63.53;32.35;;;15.10;99.90;;;;;;4962838;28;20097;-90
2022/11/11 20:22:30;;;;;;;30.45;16.90;;;15.10;99.90;;;;;;4964097;28;20058;-91
2022/11/11 20:25:15;;;;;;;80.03;43.33;;;15.20;99.90;;;;;;4963207;28;20045;-92
2022/11/11 20:28:00;;;;;;;127.25;62.92;;;15.10;99.90;;;;;;4963115;28;20039;-91
2022/11/11 20:30:45;;;;;;;;;;;15.20;99.90;;;;;;4963517;28;20079;-92
2022/11/11 20:33:36;;;;;;;29.15;17.02;;;15.20;99.90;;;;;;4965525;28;20382;-93
2022/11/11 20:36:21;;;;;;;35.03;20.80;;;15.20;99.90;;;;;;4962788;28;20041;-91
2022/11/11 20:39:06;;;;;;;26.83;16.55;;;15.30;99.90;;;;;;4963226;28;20082;-93
2022/11/11 20:41:51;;;;;;;35.50;21.70;;;15.30;99.90;;;;;;4963126;28;20539;-91
2022/11/11 20:44:35;;;;;;;32.00;18.25;;;15.30;99.90;;;;;;4962031;28;20109;-89
2022/11/11 20:47:22;;;;;;;30.45;17.27;;;15.30;99.90;;;;;;4962877;28;20045;-91
2022/11/11 20:50:07;;;;;;;35.55;19.33;;;15.20;99.90;;;;;;4962313;28;20472;-91
2022/11/11 20:52:53;;;;;;;43.95;25.20;;;15.20;99.90;;;;;;4962306;28;20049;-91
2022/11/11 20:55:38;;;;;;;59.55;30.50;;;15.20;99.90;;;;;;4949064;28;20042;-92
2022/11/11 20:58:23;;;;;;;36.67;20.85;;;15.20;99.90;;;;;;4962380;28;20568;-93
2022/11/11 21:01:14;;;;;;;32.60;18.13;;;15.20;99.90;;;;;;4962120;28;20133;-91
2022/11/11 21:03:59;;;;;;;28.65;16.90;;;15.10;99.90;;;;;;4962112;28;20401;-93
2022/11/11 21:06:44;;;;;;;29.92;16.02;;;15.20;99.90;;;;;;4962101;28;20053;-92
2022/11/11 21:09:29;;;;;;;40.45;18.05;;;15.20;99.90;;;;;;4962234;28;20050;-91
2022/11/11 21:12:18;;;;;;;36.08;17.05;;;15.20;99.90;;;;;;4962106;28;20081;-91
2022/11/11 21:15:04;;;;;;;34.10;20.10;;;15.20;99.90;;;;;;4962095;28;20069;-93
2022/11/11 21:17:48;;;;;;;30.83;17.60;;;15.20;99.90;;;;;;4962034;28;20097;-91
2022/11/11 21:20:34;;;;;;;;;;;15.20;99.90;;;;;;4962230;28;20209;-90
2022/11/11 21:23:19;;;;;;;30.77;16.98;;;15.10;99.90;;;;;;4962093;28;19925;-92
2022/11/11 21:26:08;;;;;;;31.88;19.35;;;15.20;99.90;;;;;;4961841;28;20193;-92
2022/11/11 21:29:00;;;;;;;36.63;16.63;;;15.20;99.90;;;;;;4962518;28;20050;-92
2022/11/11 21:31:45;;;;;;;31.20;16.50;;;15.20;99.90;;;;;;4962490;28;20507;-91
2022/11/11 21:34:30;;;;;;;27.60;15.68;;;15.20;99.90;;;;;;4961736;28;20034;-92
2022/11/11 21:37:15;;;;;;;25.38;13.55;;;15.30;99.90;;;;;;4962466;28;20053;-92
2022/11/11 21:40:08;;;;;;;26.52;15.40;;;15.30;99.90;;;;;;4961418;28;20102;-91
2022/11/11 21:42:53;;;;;;;40.22;20.20;;;15.40;99.90;;;;;;4961999;28;20038;-91
2022/11/11 21:45:38;;;;;;;28.05;15.57;;;15.50;99.90;;;;;;4956365;28;20081;-91
2022/11/11 21:48:26;;;;;;;22.38;10.73;;;15.50;99.90;;;;;;4956937;29;20054;-90
2022/11/11 21:51:17;;;;;;;26.02;9.20;;;15.60;99.90;;;;;;4950333;28;20102;-90
2022/11/11 21:54:06;;;;;;;17.75;9.90;;;15.70;99.90;;;;;;4922618;29;20042;-91
2022/11/11 21:56:51;;;;;;;21.08;9.80;;;15.80;99.90;;;;;;4922605;29;20046;-91
2022/11/11 21:59:36;;;;;;;20.80;8.50;;;16.00;99.90;;;;;;4935785;29;20545;-91
2022/11/11 22:02:21;;;;;;;17.80;8.82;;;16.00;99.90;;;;;;4935849;29;20086;-90
2022/11/11 22:05:07;;;;;;;23.35;9.43;;;16.00;99.90;;;;;;4922281;29;20047;-91
2022/11/11 22:07:51;;;;;;;21.10;10.50;;;16.00;99.90;;;;;;4923635;29;20079;-91
2022/11/11 22:10:37;;;;;;;31.23;11.82;;;15.90;99.90;;;;;;4922439;29;20123;-91
2022/11/11 22:13:22;;;;;;;23.50;10.50;;;15.90;99.90;;;;;;4921950;29;20046;-92
2022/11/11 22:16:09;;;;;;;19.67;10.65;;;15.80;99.90;;;;;;4930498;29;20424;-91
2022/11/11 22:18:59;;;;;;;16.23;9.75;;;15.80;99.90;;;;;;4955732;29;20175;-91
2022/11/11 22:21:46;;;;;;;22.05;9.55;;;15.80;99.90;;;;;;4955664;29;20043;-90
2022/11/11 22:24:31;;;;;;;21.92;9.65;;;15.70;99.90;;;;;;4955413;29;20046;-91
2022/11/11 22:27:16;;;;;;;18.85;9.30;;;15.70;99.90;;;;;;4955486;29;20034;-90
2022/11/11 22:30:01;;;;;;;16.83;9.88;;;15.60;99.90;;;;;;4955463;29;20504;-92
2022/11/11 22:32:52;;;;;;;16.05;9.90;;;15.60;99.90;;;;;;4954996;29;20115;-90
2022/11/11 22:35:37;;;;;;;17.58;9.77;;;15.60;99.90;;;;;;4956494;28;20122;-92
2022/11/11 22:38:25;;;;;;;20.00;9.80;;;15.50;99.90;;;;;;4959771;29;20053;-91
2022/11/11 22:41:16;;;;;;;22.30;10.60;;;15.40;99.90;;;;;;4959192;29;20096;-92
2022/11/11 22:44:01;;;;;;;21.42;10.32;;;15.40;99.90;;;;;;4959443;29;20050;-91
2022/11/11 22:46:46;;;;;;;25.77;9.68;;;15.40;99.90;;;;;;4959101;29;20042;-91
2022/11/11 22:49:31;;;;;;;;;;;15.40;99.90;;;;;;4959343;29;20436;-92
2022/11/11 22:52:16;;;;;;;18.00;10.68;;;15.40;99.90;;;;;;4958491;28;19945;-91
2022/11/11 22:55:01;;;;;;;24.30;10.48;;;15.20;99.90;;;;;;4964583;28;20057;-91
2022/11/11 22:57:45;;;;;;;21.25;9.15;;;15.20;99.90;;;;;;4964599;28;20487;-92
2022/11/11 23:00:30;;;;;;;30.27;11.75;;;15.20;99.90;;;;;;4964768;28;20499;-91
2022/11/11 23:03:15;;;;;;;24.65;12.77;;;15.00;99.90;;;;;;4964510;28;20142;-92
2022/11/11 23:06:06;;;;;;;16.95;8.93;;;15.00;99.90;;;;;;4964256;28;20084;-92
2022/11/11 23:08:52;;;;;;;19.92;10.85;;;15.00;99.90;;;;;;4964509;28;20384;-91
2022/11/11 23:11:39;;;;;;;22.13;11.18;;;15.00;99.90;;;;;;4964375;28;20098;-92
2022/11/11 23:14:24;;;;;;;27.00;10.73;;;14.90;99.90;;;;;;4964911;28;20089;-91
2022/11/11 23:17:09;;;;;;;20.77;10.18;;;14.90;99.90;;;;;;4964112;28;20045;-92
2022/11/11 23:19:54;;;;;;;21.80;10.30;;;14.90;99.90;;;;;;4964154;28;20526;-90
2022/11/11 23:22:38;;;;;;;23.33;11.70;;;14.80;99.90;;;;;;4964071;28;20082;-90
2022/11/11 23:25:26;;;;;;;17.60;10.55;;;14.80;99.90;;;;;;4964873;28;20069;-91
2022/11/11 23:28:12;;;;;;;23.30;10.27;;;14.70;99.90;;;;;;4964869;28;20062;-90
2022/11/11 23:31:06;;;;;;;18.08;10.57;;;14.60;99.90;;;;;;4968710;28;20117;-90
2022/11/11 23:33:53;;;;;;;17.55;10.85;;;14.70;99.90;;;;;;4965638;28;20061;-93
2022/11/11 23:36:38;;;;;;;14.27;11.95;;;14.80;99.90;;;;;;4964606;28;20061;-91
2022/11/11 23:39:23;;;;;;;14.85;13.10;;;14.90;99.90;;;;;;4964708;28;20117;-92
2022/11/11 23:42:08;;;;;;;18.80;13.15;;;15.00;99.90;;;;;;4963674;28;20042;-91
2022/11/11 23:44:53;;;;;;;14.38;12.88;;;15.10;99.90;;;;;;4963680;28;20069;-91
2022/11/11 23:47:38;;;;;;;;;;;15.10;99.90;;;;;;4963359;28;20081;-92
2022/11/11 23:50:23;;;;;;;19.25;14.15;;;15.10;99.90;;;;;;4965366;28;19937;-93
2022/11/11 23:53:08;;;;;;;16.90;14.05;;;15.10;99.90;;;;;;4963930;28;20081;-92
2022/11/11 23:55:55;;;;;;;20.88;14.15;;;15.10;99.90;;;;;;4964575;28;20045;-92
2022/11/11 23:58:40;;;;;;;18.65;14.20;;;15.00;99.90;;;;;;4964190;28;20065;-92
